sensor_id;sensor_type;location;lat;lon;timestamp;P1;durP1;ratioP1;P2;durP2;ratioP2
2680;SDS011;1350;42.134;24.708;2024-02-21T00:02:12;52.78;;;35.58;;
2680;SDS011;1350;42.134;24.708;2024-02-21T00:04:39;49.42;;;33.85;;
2680;SDS011;1350;42.134;24.708;2024-02-21T00:07:06;51.95;;;34.25;;
2680;SDS011;1350;42.134;24.708;2024-02-21T00:09:34;54.30;;;36.53;;
2680;SDS011;1350;42.134;24.708;2024-02-21T00:12:01;53.33;;;34.83;;
2680;SDS011;1350;42.134;24.708;2024-02-21T00:14:28;60.92;;;35.03;;
2680;SDS011;1350;42.134;24.708;2024-02-21T00:16:55;51.10;;;33.72;;
2680;SDS011;1350;42.134;24.708;2024-02-21T00:19:24;52.25;;;34.85;;
2680;SDS011;1350;42.134;24.708;2024-02-21T00:24:34;56.30;;;37.03;;
2680;SDS011;1350;42.134;24.708;2024-02-21T00:27:14;47.83;;;34.03;;
2680;SDS011;1350;42.134;24.708;2024-02-21T00:29:58;61.42;;;35.83;;
2680;SDS011;1350;42.134;24.708;2024-02-21T00:32:44;52.00;;;36.10;;
2680;SDS011;1350;42.134;24.708;2024-02-21T00:35:58;66.07;;;39.17;;
2680;SDS011;1350;42.134;24.708;2024-02-21T00:38:43;55.15;;;36.70;;
2680;SDS011;1350;42.134;24.708;2024-02-21T00:41:35;56.70;;;35.63;;
2680;SDS011;1350;42.134;24.708;2024-02-21T00:44:29;55.63;;;34.03;;
2680;SDS011;1350;42.134;24.708;2024-02-21T00:47:15;57.65;;;38.92;;
2680;SDS011;1350;42.134;24.708;2024-02-21T00:49:42;64.88;;;38.40;;
2680;SDS011;1350;42.134;24.708;2024-02-21T00:52:09;49.88;;;34.55;;
2680;SDS011;1350;42.134;24.708;2024-02-21T00:54:36;52.65;;;36.88;;
2680;SDS011;1350;42.134;24.708;2024-02-21T00:57:04;54.97;;;37.75;;
2680;SDS011;1350;42.134;24.708;2024-02-21T00:59:31;60.42;;;40.50;;
2680;SDS011;1350;42.134;24.708;2024-02-21T01:01:58;55.40;;;39.08;;
2680;SDS011;1350;42.134;24.708;2024-02-21T01:04:25;57.35;;;39.63;;
2680;SDS011;1350;42.134;24.708;2024-02-21T01:06:52;60.55;;;36.80;;
2680;SDS011;1350;42.134;24.708;2024-02-21T01:09:19;50.90;;;35.45;;
2680;SDS011;1350;42.134;24.708;2024-02-21T01:11:46;54.28;;;39.47;;
2680;SDS011;1350;42.134;24.708;2024-02-21T01:14:16;56.50;;;37.03;;
2680;SDS011;1350;42.134;24.708;2024-02-21T01:16:43;55.90;;;38.20;;
2680;SDS011;1350;42.134;24.708;2024-02-21T01:19:10;52.03;;;35.67;;
2680;SDS011;1350;42.134;24.708;2024-02-21T01:21:37;53.28;;;33.40;;
2680;SDS011;1350;42.134;24.708;2024-02-21T01:24:04;51.70;;;35.70;;
2680;SDS011;1350;42.134;24.708;2024-02-21T01:26:31;43.65;;;31.17;;
2680;SDS011;1350;42.134;24.708;2024-02-21T01:28:59;47.30;;;32.72;;
2680;SDS011;1350;42.134;24.708;2024-02-21T01:31:27;50.00;;;34.53;;
2680;SDS011;1350;42.134;24.708;2024-02-21T01:33:54;49.85;;;33.38;;
2680;SDS011;1350;42.134;24.708;2024-02-21T01:36:21;52.97;;;32.97;;
2680;SDS011;1350;42.134;24.708;2024-02-21T01:38:48;49.03;;;31.85;;
2680;SDS011;1350;42.134;24.708;2024-02-21T01:41:15;44.13;;;30.70;;
2680;SDS011;1350;42.134;24.708;2024-02-21T01:43:42;51.58;;;34.28;;
2680;SDS011;1350;42.134;24.708;2024-02-21T01:46:09;46.40;;;30.88;;
2680;SDS011;1350;42.134;24.708;2024-02-21T01:48:38;45.28;;;31.30;;
2680;SDS011;1350;42.134;24.708;2024-02-21T01:51:05;42.13;;;31.42;;
2680;SDS011;1350;42.134;24.708;2024-02-21T01:53:33;52.78;;;34.35;;
2680;SDS011;1350;42.134;24.708;2024-02-21T01:56:02;49.45;;;30.25;;
2680;SDS011;1350;42.134;24.708;2024-02-21T01:58:30;49.15;;;30.27;;
2680;SDS011;1350;42.134;24.708;2024-02-21T02:01:02;46.20;;;30.20;;
2680;SDS011;1350;42.134;24.708;2024-02-21T02:03:31;41.35;;;28.35;;
2680;SDS011;1350;42.134;24.708;2024-02-21T02:06:40;42.55;;;30.30;;
2680;SDS011;1350;42.134;24.708;2024-02-21T02:09:29;43.88;;;29.45;;
2680;SDS011;1350;42.134;24.708;2024-02-21T02:12:18;42.53;;;29.75;;
2680;SDS011;1350;42.134;24.708;2024-02-21T02:15:08;52.20;;;32.10;;
2680;SDS011;1350;42.134;24.708;2024-02-21T02:18:04;51.80;;;33.13;;
2680;SDS011;1350;42.134;24.708;2024-02-21T02:20:33;44.22;;;28.60;;
2680;SDS011;1350;42.134;24.708;2024-02-21T02:23:00;47.88;;;29.85;;
2680;SDS011;1350;42.134;24.708;2024-02-21T02:25:34;44.75;;;31.20;;
2680;SDS011;1350;42.134;24.708;2024-02-21T02:28:02;49.10;;;29.38;;
2680;SDS011;1350;42.134;24.708;2024-02-21T02:30:31;37.55;;;25.40;;
2680;SDS011;1350;42.134;24.708;2024-02-21T02:33:07;45.85;;;28.67;;
2680;SDS011;1350;42.134;24.708;2024-02-21T02:35:36;45.50;;;29.48;;
2680;SDS011;1350;42.134;24.708;2024-02-21T02:38:21;42.25;;;27.73;;
2680;SDS011;1350;42.134;24.708;2024-02-21T02:41:08;41.70;;;28.42;;
2680;SDS011;1350;42.134;24.708;2024-02-21T02:43:50;47.53;;;26.85;;
2680;SDS011;1350;42.134;24.708;2024-02-21T02:46:42;40.05;;;27.58;;
2680;SDS011;1350;42.134;24.708;2024-02-21T02:49:37;41.33;;;28.75;;
2680;SDS011;1350;42.134;24.708;2024-02-21T02:52:09;39.60;;;26.70;;
2680;SDS011;1350;42.134;24.708;2024-02-21T02:54:36;36.80;;;27.35;;
2680;SDS011;1350;42.134;24.708;2024-02-21T02:57:04;36.67;;;25.50;;
2680;SDS011;1350;42.134;24.708;2024-02-21T02:59:32;40.15;;;27.35;;
2680;SDS011;1350;42.134;24.708;2024-02-21T03:01:59;33.15;;;23.85;;
2680;SDS011;1350;42.134;24.708;2024-02-21T03:04:26;37.20;;;26.17;;
2680;SDS011;1350;42.134;24.708;2024-02-21T03:06:52;35.40;;;23.35;;
2680;SDS011;1350;42.134;24.708;2024-02-21T03:09:19;40.38;;;26.15;;
2680;SDS011;1350;42.134;24.708;2024-02-21T03:11:46;32.50;;;22.77;;
2680;SDS011;1350;42.134;24.708;2024-02-21T03:14:15;37.58;;;24.23;;
2680;SDS011;1350;42.134;24.708;2024-02-21T03:16:42;32.58;;;24.27;;
2680;SDS011;1350;42.134;24.708;2024-02-21T03:19:08;34.65;;;24.25;;
2680;SDS011;1350;42.134;24.708;2024-02-21T03:21:35;38.67;;;27.50;;
2680;SDS011;1350;42.134;24.708;2024-02-21T03:24:08;37.03;;;24.83;;
2680;SDS011;1350;42.134;24.708;2024-02-21T03:27:07;35.60;;;25.98;;
2680;SDS011;1350;42.134;24.708;2024-02-21T03:30:00;41.40;;;25.95;;
2680;SDS011;1350;42.134;24.708;2024-02-21T03:32:36;39.88;;;24.80;;
2680;SDS011;1350;42.134;24.708;2024-02-21T03:35:16;36.22;;;26.58;;
2680;SDS011;1350;42.134;24.708;2024-02-21T03:38:00;32.80;;;23.73;;
2680;SDS011;1350;42.134;24.708;2024-02-21T03:40:32;35.40;;;26.98;;
2680;SDS011;1350;42.134;24.708;2024-02-21T03:43:05;35.67;;;25.15;;
2680;SDS011;1350;42.134;24.708;2024-02-21T03:48:25;42.72;;;27.10;;
2680;SDS011;1350;42.134;24.708;2024-02-21T03:51:13;37.38;;;24.45;;
2680;SDS011;1350;42.134;24.708;2024-02-21T03:53:40;37.88;;;24.45;;
2680;SDS011;1350;42.134;24.708;2024-02-21T03:56:07;30.50;;;23.02;;
2680;SDS011;1350;42.134;24.708;2024-02-21T03:58:34;32.38;;;23.25;;
2680;SDS011;1350;42.134;24.708;2024-02-21T04:01:02;35.55;;;23.67;;
2680;SDS011;1350;42.134;24.708;2024-02-21T04:03:30;37.47;;;25.52;;
2680;SDS011;1350;42.134;24.708;2024-02-21T04:06:03;40.30;;;27.58;;
2680;SDS011;1350;42.134;24.708;2024-02-21T04:08:45;38.78;;;25.23;;
2680;SDS011;1350;42.134;24.708;2024-02-21T04:11:42;36.97;;;25.05;;
2680;SDS011;1350;42.134;24.708;2024-02-21T04:14:19;33.17;;;23.45;;
2680;SDS011;1350;42.134;24.708;2024-02-21T04:17:19;37.13;;;25.52;;
2680;SDS011;1350;42.134;24.708;2024-02-21T04:19:50;30.17;;;22.63;;
2680;SDS011;1350;42.134;24.708;2024-02-21T04:25:43;36.13;;;23.83;;
2680;SDS011;1350;42.134;24.708;2024-02-21T04:28:10;33.53;;;24.10;;
2680;SDS011;1350;42.134;24.708;2024-02-21T04:30:37;33.72;;;24.48;;
2680;SDS011;1350;42.134;24.708;2024-02-21T04:33:05;34.00;;;23.80;;
2680;SDS011;1350;42.134;24.708;2024-02-21T04:35:32;33.08;;;23.88;;
2680;SDS011;1350;42.134;24.708;2024-02-21T04:37:59;38.72;;;26.20;;
2680;SDS011;1350;42.134;24.708;2024-02-21T04:40:26;36.65;;;24.77;;
2680;SDS011;1350;42.134;24.708;2024-02-21T04:42:53;32.92;;;24.73;;
2680;SDS011;1350;42.134;24.708;2024-02-21T04:45:20;38.45;;;26.05;;
2680;SDS011;1350;42.134;24.708;2024-02-21T04:47:47;34.95;;;25.85;;
2680;SDS011;1350;42.134;24.708;2024-02-21T04:50:16;33.22;;;23.73;;
2680;SDS011;1350;42.134;24.708;2024-02-21T04:52:42;41.50;;;26.92;;
2680;SDS011;1350;42.134;24.708;2024-02-21T04:55:09;38.88;;;26.98;;
2680;SDS011;1350;42.134;24.708;2024-02-21T04:57:36;33.03;;;24.63;;
2680;SDS011;1350;42.134;24.708;2024-02-21T05:00:04;29.75;;;22.05;;
2680;SDS011;1350;42.134;24.708;2024-02-21T05:02:32;31.48;;;20.80;;
2680;SDS011;1350;42.134;24.708;2024-02-21T05:04:59;27.42;;;20.45;;
2680;SDS011;1350;42.134;24.708;2024-02-21T05:07:27;28.73;;;22.45;;
2680;SDS011;1350;42.134;24.708;2024-02-21T05:09:54;26.48;;;19.58;;
2680;SDS011;1350;42.134;24.708;2024-02-21T05:12:21;29.25;;;20.05;;
2680;SDS011;1350;42.134;24.708;2024-02-21T05:14:48;32.08;;;22.05;;
2680;SDS011;1350;42.134;24.708;2024-02-21T05:17:15;32.17;;;23.95;;
2680;SDS011;1350;42.134;24.708;2024-02-21T05:19:42;32.17;;;23.45;;
2680;SDS011;1350;42.134;24.708;2024-02-21T05:22:09;34.83;;;23.20;;
2680;SDS011;1350;42.134;24.708;2024-02-21T05:24:38;32.13;;;23.60;;
2680;SDS011;1350;42.134;24.708;2024-02-21T05:27:05;29.90;;;21.95;;
2680;SDS011;1350;42.134;24.708;2024-02-21T05:29:32;28.75;;;22.13;;
2680;SDS011;1350;42.134;24.708;2024-02-21T05:32:00;34.30;;;24.45;;
2680;SDS011;1350;42.134;24.708;2024-02-21T05:34:27;34.35;;;25.48;;
2680;SDS011;1350;42.134;24.708;2024-02-21T05:36:54;37.30;;;27.95;;
2680;SDS011;1350;42.134;24.708;2024-02-21T05:39:22;41.92;;;29.90;;
2680;SDS011;1350;42.134;24.708;2024-02-21T05:41:51;46.05;;;31.90;;
2680;SDS011;1350;42.134;24.708;2024-02-21T05:44:18;53.03;;;36.72;;
2680;SDS011;1350;42.134;24.708;2024-02-21T05:46:47;49.45;;;33.30;;
2680;SDS011;1350;42.134;24.708;2024-02-21T05:49:14;58.63;;;36.67;;
2680;SDS011;1350;42.134;24.708;2024-02-21T05:51:41;61.33;;;37.55;;
2680;SDS011;1350;42.134;24.708;2024-02-21T05:54:08;67.30;;;40.67;;
2680;SDS011;1350;42.134;24.708;2024-02-21T05:56:35;62.75;;;40.55;;
2680;SDS011;1350;42.134;24.708;2024-02-21T05:59:03;78.30;;;53.03;;
2680;SDS011;1350;42.134;24.708;2024-02-21T06:01:30;63.15;;;41.55;;
2680;SDS011;1350;42.134;24.708;2024-02-21T06:03:57;58.03;;;38.83;;
2680;SDS011;1350;42.134;24.708;2024-02-21T06:06:24;56.90;;;39.35;;
2680;SDS011;1350;42.134;24.708;2024-02-21T06:08:51;61.15;;;40.65;;
2680;SDS011;1350;42.134;24.708;2024-02-21T06:11:18;58.08;;;39.85;;
2680;SDS011;1350;42.134;24.708;2024-02-21T06:13:45;61.78;;;40.75;;
2680;SDS011;1350;42.134;24.708;2024-02-21T06:16:13;58.53;;;39.30;;
2680;SDS011;1350;42.134;24.708;2024-02-21T06:18:40;70.82;;;40.90;;
2680;SDS011;1350;42.134;24.708;2024-02-21T06:21:07;70.13;;;41.60;;
2680;SDS011;1350;42.134;24.708;2024-02-21T06:23:34;55.58;;;43.50;;
2680;SDS011;1350;42.134;24.708;2024-02-21T06:26:03;67.05;;;40.45;;
2680;SDS011;1350;42.134;24.708;2024-02-21T06:28:30;64.57;;;40.03;;
2680;SDS011;1350;42.134;24.708;2024-02-21T06:30:57;54.42;;;38.30;;
2680;SDS011;1350;42.134;24.708;2024-02-21T06:33:25;59.22;;;39.20;;
2680;SDS011;1350;42.134;24.708;2024-02-21T06:35:52;53.42;;;38.22;;
2680;SDS011;1350;42.134;24.708;2024-02-21T06:38:19;49.20;;;35.10;;
2680;SDS011;1350;42.134;24.708;2024-02-21T06:40:46;56.25;;;35.95;;
2680;SDS011;1350;42.134;24.708;2024-02-21T06:43:17;49.80;;;34.53;;
2680;SDS011;1350;42.134;24.708;2024-02-21T06:45:45;40.95;;;30.02;;
2680;SDS011;1350;42.134;24.708;2024-02-21T06:48:16;47.58;;;33.03;;
2680;SDS011;1350;42.134;24.708;2024-02-21T06:50:45;48.95;;;34.05;;
2680;SDS011;1350;42.134;24.708;2024-02-21T06:53:12;52.40;;;33.92;;
2680;SDS011;1350;42.134;24.708;2024-02-21T06:55:39;51.55;;;33.25;;
2680;SDS011;1350;42.134;24.708;2024-02-21T06:58:06;50.72;;;34.70;;
2680;SDS011;1350;42.134;24.708;2024-02-21T07:00:36;45.55;;;33.60;;
2680;SDS011;1350;42.134;24.708;2024-02-21T07:03:04;45.47;;;31.38;;
2680;SDS011;1350;42.134;24.708;2024-02-21T07:05:31;45.03;;;30.40;;
2680;SDS011;1350;42.134;24.708;2024-02-21T07:07:59;37.70;;;25.45;;
2680;SDS011;1350;42.134;24.708;2024-02-21T07:10:26;46.65;;;29.10;;
2680;SDS011;1350;42.134;24.708;2024-02-21T07:12:54;39.55;;;29.55;;
2680;SDS011;1350;42.134;24.708;2024-02-21T07:15:21;38.40;;;29.17;;
2680;SDS011;1350;42.134;24.708;2024-02-21T07:17:48;42.47;;;28.85;;
2680;SDS011;1350;42.134;24.708;2024-02-21T07:20:15;39.85;;;29.77;;
2680;SDS011;1350;42.134;24.708;2024-02-21T07:22:42;41.95;;;28.90;;
2680;SDS011;1350;42.134;24.708;2024-02-21T07:25:10;37.70;;;26.75;;
2680;SDS011;1350;42.134;24.708;2024-02-21T07:27:37;35.75;;;25.85;;
2680;SDS011;1350;42.134;24.708;2024-02-21T07:30:06;36.65;;;26.52;;
2680;SDS011;1350;42.134;24.708;2024-02-21T07:32:33;33.58;;;24.00;;
2680;SDS011;1350;42.134;24.708;2024-02-21T07:35:00;30.20;;;24.00;;
2680;SDS011;1350;42.134;24.708;2024-02-21T07:37:27;38.78;;;25.20;;
2680;SDS011;1350;42.134;24.708;2024-02-21T07:39:54;33.63;;;24.23;;
2680;SDS011;1350;42.134;24.708;2024-02-21T07:42:23;30.02;;;22.48;;
2680;SDS011;1350;42.134;24.708;2024-02-21T07:44:50;29.25;;;22.30;;
2680;SDS011;1350;42.134;24.708;2024-02-21T07:47:17;33.33;;;25.48;;
2680;SDS011;1350;42.134;24.708;2024-02-21T07:49:44;34.60;;;24.80;;
2680;SDS011;1350;42.134;24.708;2024-02-21T07:52:11;33.83;;;25.58;;
2680;SDS011;1350;42.134;24.708;2024-02-21T07:54:38;34.97;;;24.13;;
2680;SDS011;1350;42.134;24.708;2024-02-21T07:57:05;34.50;;;24.75;;
2680;SDS011;1350;42.134;24.708;2024-02-21T07:59:33;37.00;;;24.60;;
2680;SDS011;1350;42.134;24.708;2024-02-21T08:02:00;34.38;;;25.23;;
2680;SDS011;1350;42.134;24.708;2024-02-21T08:04:27;34.42;;;26.63;;
2680;SDS011;1350;42.134;24.708;2024-02-21T08:06:54;33.28;;;23.35;;
2680;SDS011;1350;42.134;24.708;2024-02-21T08:09:24;23.15;;;16.95;;
2680;SDS011;1350;42.134;24.708;2024-02-21T08:11:51;19.38;;;15.50;;
2680;SDS011;1350;42.134;24.708;2024-02-21T08:14:18;18.48;;;13.85;;
2680;SDS011;1350;42.134;24.708;2024-02-21T08:16:46;18.95;;;14.45;;
2680;SDS011;1350;42.134;24.708;2024-02-21T08:19:13;19.73;;;13.70;;
2680;SDS011;1350;42.134;24.708;2024-02-21T08:21:40;22.83;;;13.98;;
2680;SDS011;1350;42.134;24.708;2024-02-21T08:24:07;18.17;;;12.70;;
2680;SDS011;1350;42.134;24.708;2024-02-21T08:26:34;17.42;;;14.18;;
2680;SDS011;1350;42.134;24.708;2024-02-21T08:29:01;18.10;;;13.50;;
2680;SDS011;1350;42.134;24.708;2024-02-21T08:31:28;13.80;;;10.90;;
2680;SDS011;1350;42.134;24.708;2024-02-21T08:33:58;16.15;;;10.90;;
2680;SDS011;1350;42.134;24.708;2024-02-21T08:36:27;17.95;;;13.38;;
2680;SDS011;1350;42.134;24.708;2024-02-21T08:38:55;19.88;;;13.32;;
2680;SDS011;1350;42.134;24.708;2024-02-21T08:41:23;17.88;;;10.90;;
2680;SDS011;1350;42.134;24.708;2024-02-21T08:43:50;18.00;;;11.52;;
2680;SDS011;1350;42.134;24.708;2024-02-21T08:46:17;13.98;;;10.40;;
2680;SDS011;1350;42.134;24.708;2024-02-21T08:48:44;17.42;;;12.68;;
2680;SDS011;1350;42.134;24.708;2024-02-21T08:51:13;18.52;;;14.40;;
2680;SDS011;1350;42.134;24.708;2024-02-21T08:53:40;21.85;;;14.55;;
2680;SDS011;1350;42.134;24.708;2024-02-21T08:56:07;20.75;;;13.93;;
2680;SDS011;1350;42.134;24.708;2024-02-21T08:58:34;21.33;;;15.57;;
2680;SDS011;1350;42.134;24.708;2024-02-21T09:01:03;19.60;;;13.13;;
2680;SDS011;1350;42.134;24.708;2024-02-21T09:03:31;18.38;;;13.48;;
2680;SDS011;1350;42.134;24.708;2024-02-21T09:05:58;21.00;;;14.07;;
2680;SDS011;1350;42.134;24.708;2024-02-21T09:08:26;17.88;;;12.57;;
2680;SDS011;1350;42.134;24.708;2024-02-21T09:10:54;17.95;;;14.57;;
2680;SDS011;1350;42.134;24.708;2024-02-21T09:13:21;18.88;;;13.85;;
2680;SDS011;1350;42.134;24.708;2024-02-21T09:15:49;21.30;;;14.30;;
2680;SDS011;1350;42.134;24.708;2024-02-21T09:18:16;19.83;;;15.77;;
2680;SDS011;1350;42.134;24.708;2024-02-21T09:20:43;19.17;;;14.60;;
2680;SDS011;1350;42.134;24.708;2024-02-21T09:23:10;16.83;;;10.57;;
2680;SDS011;1350;42.134;24.708;2024-02-21T09:25:38;15.53;;;10.53;;
2680;SDS011;1350;42.134;24.708;2024-02-21T09:28:06;24.47;;;10.70;;
2680;SDS011;1350;42.134;24.708;2024-02-21T09:30:33;18.43;;;10.30;;
2680;SDS011;1350;42.134;24.708;2024-02-21T09:33:00;16.90;;;12.67;;
2680;SDS011;1350;42.134;24.708;2024-02-21T09:35:27;12.90;;;10.93;;
2680;SDS011;1350;42.134;24.708;2024-02-21T09:37:54;13.70;;;11.10;;
2680;SDS011;1350;42.134;24.708;2024-02-21T09:40:21;14.87;;;10.03;;
2680;SDS011;1350;42.134;24.708;2024-02-21T09:42:51;12.20;;;8.70;;
2680;SDS011;1350;42.134;24.708;2024-02-21T09:45:25;16.83;;;10.03;;
2680;SDS011;1350;42.134;24.708;2024-02-21T09:48:00;15.80;;;11.50;;
2680;SDS011;1350;42.134;24.708;2024-02-21T09:50:41;15.30;;;9.40;;
2680;SDS011;1350;42.134;24.708;2024-02-21T09:53:11;17.17;;;11.20;;
2680;SDS011;1350;42.134;24.708;2024-02-21T09:55:39;12.30;;;9.27;;
2680;SDS011;1350;42.134;24.708;2024-02-21T09:58:08;13.10;;;10.50;;
2680;SDS011;1350;42.134;24.708;2024-02-21T10:00:35;15.40;;;9.30;;
2680;SDS011;1350;42.134;24.708;2024-02-21T10:03:02;13.93;;;10.00;;
2680;SDS011;1350;42.134;24.708;2024-02-21T10:05:35;11.63;;;9.23;;
2680;SDS011;1350;42.134;24.708;2024-02-21T10:08:03;17.33;;;10.40;;
2680;SDS011;1350;42.134;24.708;2024-02-21T10:10:39;13.97;;;10.23;;
2680;SDS011;1350;42.134;24.708;2024-02-21T10:13:09;15.17;;;10.43;;
2680;SDS011;1350;42.134;24.708;2024-02-21T10:15:37;11.63;;;8.97;;
2680;SDS011;1350;42.134;24.708;2024-02-21T10:18:04;13.23;;;8.57;;
2680;SDS011;1350;42.134;24.708;2024-02-21T10:20:32;14.53;;;8.83;;
2680;SDS011;1350;42.134;24.708;2024-02-21T10:23:03;14.17;;;8.53;;
2680;SDS011;1350;42.134;24.708;2024-02-21T10:25:33;16.20;;;9.80;;
2680;SDS011;1350;42.134;24.708;2024-02-21T10:28:01;12.40;;;8.80;;
2680;SDS011;1350;42.134;24.708;2024-02-21T10:30:30;13.07;;;8.60;;
2680;SDS011;1350;42.134;24.708;2024-02-21T10:32:57;12.10;;;7.63;;
2680;SDS011;1350;42.134;24.708;2024-02-21T10:35:27;13.10;;;8.90;;
2680;SDS011;1350;42.134;24.708;2024-02-21T10:37:55;15.63;;;9.17;;
2680;SDS011;1350;42.134;24.708;2024-02-21T10:40:27;12.97;;;9.30;;
2680;SDS011;1350;42.134;24.708;2024-02-21T10:42:56;11.53;;;9.37;;
2680;SDS011;1350;42.134;24.708;2024-02-21T10:45:27;12.70;;;9.70;;
2680;SDS011;1350;42.134;24.708;2024-02-21T10:48:01;13.00;;;9.33;;
2680;SDS011;1350;42.134;24.708;2024-02-21T10:50:36;15.50;;;8.23;;
2680;SDS011;1350;42.134;24.708;2024-02-21T10:53:16;10.67;;;8.07;;
2680;SDS011;1350;42.134;24.708;2024-02-21T10:55:52;13.70;;;9.00;;
2680;SDS011;1350;42.134;24.708;2024-02-21T10:58:42;11.70;;;8.50;;
2680;SDS011;1350;42.134;24.708;2024-02-21T11:01:10;12.17;;;9.33;;
2680;SDS011;1350;42.134;24.708;2024-02-21T11:03:41;15.97;;;9.20;;
2680;SDS011;1350;42.134;24.708;2024-02-21T11:06:10;12.70;;;8.87;;
2680;SDS011;1350;42.134;24.708;2024-02-21T11:08:38;12.20;;;8.10;;
2680;SDS011;1350;42.134;24.708;2024-02-21T11:11:05;12.80;;;8.30;;
2680;SDS011;1350;42.134;24.708;2024-02-21T11:13:32;10.80;;;8.27;;
2680;SDS011;1350;42.134;24.708;2024-02-21T11:16:08;13.90;;;7.90;;
2680;SDS011;1350;42.134;24.708;2024-02-21T11:18:37;25.13;;;9.20;;
2680;SDS011;1350;42.134;24.708;2024-02-21T11:21:06;13.87;;;8.13;;
2680;SDS011;1350;42.134;24.708;2024-02-21T11:23:34;19.97;;;9.77;;
2680;SDS011;1350;42.134;24.708;2024-02-21T11:26:05;13.17;;;8.80;;
2680;SDS011;1350;42.134;24.708;2024-02-21T11:28:32;10.00;;;8.27;;
2680;SDS011;1350;42.134;24.708;2024-02-21T11:31:07;10.80;;;8.17;;
2680;SDS011;1350;42.134;24.708;2024-02-21T11:33:35;10.63;;;7.37;;
2680;SDS011;1350;42.134;24.708;2024-02-21T11:36:07;10.87;;;6.70;;
2680;SDS011;1350;42.134;24.708;2024-02-21T11:38:34;9.30;;;6.80;;
2680;SDS011;1350;42.134;24.708;2024-02-21T11:41:01;11.87;;;6.90;;
2680;SDS011;1350;42.134;24.708;2024-02-21T11:43:29;9.77;;;7.00;;
2680;SDS011;1350;42.134;24.708;2024-02-21T11:45:59;11.20;;;6.90;;
2680;SDS011;1350;42.134;24.708;2024-02-21T11:48:28;15.20;;;7.70;;
2680;SDS011;1350;42.134;24.708;2024-02-21T11:50:55;10.27;;;6.83;;
2680;SDS011;1350;42.134;24.708;2024-02-21T11:53:24;9.50;;;6.20;;
2680;SDS011;1350;42.134;24.708;2024-02-21T11:55:56;11.33;;;7.30;;
2680;SDS011;1350;42.134;24.708;2024-02-21T11:58:23;12.07;;;7.43;;
2680;SDS011;1350;42.134;24.708;2024-02-21T12:00:50;9.27;;;5.70;;
2680;SDS011;1350;42.134;24.708;2024-02-21T12:03:18;9.10;;;6.80;;
2680;SDS011;1350;42.134;24.708;2024-02-21T12:05:45;11.33;;;6.27;;
2680;SDS011;1350;42.134;24.708;2024-02-21T12:08:12;12.47;;;6.90;;
2680;SDS011;1350;42.134;24.708;2024-02-21T12:10:41;10.03;;;6.67;;
2680;SDS011;1350;42.134;24.708;2024-02-21T12:13:09;12.10;;;6.70;;
2680;SDS011;1350;42.134;24.708;2024-02-21T12:15:38;10.53;;;5.83;;
2680;SDS011;1350;42.134;24.708;2024-02-21T12:18:06;10.53;;;6.27;;
2680;SDS011;1350;42.134;24.708;2024-02-21T12:20:33;10.53;;;5.83;;
2680;SDS011;1350;42.134;24.708;2024-02-21T12:23:01;9.30;;;6.43;;
2680;SDS011;1350;42.134;24.708;2024-02-21T12:25:29;12.83;;;6.17;;
2680;SDS011;1350;42.134;24.708;2024-02-21T12:27:58;13.10;;;7.57;;
2680;SDS011;1350;42.134;24.708;2024-02-21T12:30:25;9.03;;;6.00;;
2680;SDS011;1350;42.134;24.708;2024-02-21T12:32:52;9.33;;;6.00;;
2680;SDS011;1350;42.134;24.708;2024-02-21T12:35:19;9.10;;;6.03;;
2680;SDS011;1350;42.134;24.708;2024-02-21T12:37:46;9.37;;;6.23;;
2680;SDS011;1350;42.134;24.708;2024-02-21T12:40:13;11.40;;;5.93;;
2680;SDS011;1350;42.134;24.708;2024-02-21T12:43:00;39.13;;;8.80;;
2680;SDS011;1350;42.134;24.708;2024-02-21T12:45:28;10.67;;;7.10;;
2680;SDS011;1350;42.134;24.708;2024-02-21T12:47:55;8.67;;;5.20;;
2680;SDS011;1350;42.134;24.708;2024-02-21T12:50:23;8.43;;;5.27;;
2680;SDS011;1350;42.134;24.708;2024-02-21T12:52:50;7.90;;;5.10;;
2680;SDS011;1350;42.134;24.708;2024-02-21T12:55:17;9.13;;;6.30;;
2680;SDS011;1350;42.134;24.708;2024-02-21T12:57:44;10.17;;;5.43;;
2680;SDS011;1350;42.134;24.708;2024-02-21T13:00:13;11.77;;;4.77;;
2680;SDS011;1350;42.134;24.708;2024-02-21T13:02:41;7.30;;;4.80;;
2680;SDS011;1350;42.134;24.708;2024-02-21T13:05:08;8.73;;;4.70;;
2680;SDS011;1350;42.134;24.708;2024-02-21T13:07:35;8.07;;;5.00;;
2680;SDS011;1350;42.134;24.708;2024-02-21T13:10:02;6.97;;;4.50;;
2680;SDS011;1350;42.134;24.708;2024-02-21T13:12:30;8.07;;;5.27;;
2680;SDS011;1350;42.134;24.708;2024-02-21T13:14:57;9.23;;;4.40;;
2680;SDS011;1350;42.134;24.708;2024-02-21T13:17:26;7.03;;;4.30;;
2680;SDS011;1350;42.134;24.708;2024-02-21T13:19:55;7.13;;;4.33;;
2680;SDS011;1350;42.134;24.708;2024-02-21T13:22:22;8.50;;;5.20;;
2680;SDS011;1350;42.134;24.708;2024-02-21T13:24:51;22.23;;;6.80;;
2680;SDS011;1350;42.134;24.708;2024-02-21T13:27:18;7.50;;;4.97;;
2680;SDS011;1350;42.134;24.708;2024-02-21T13:29:44;7.30;;;4.90;;
2680;SDS011;1350;42.134;24.708;2024-02-21T13:32:11;9.07;;;5.80;;
2680;SDS011;1350;42.134;24.708;2024-02-21T13:34:40;14.07;;;5.87;;
2680;SDS011;1350;42.134;24.708;2024-02-21T13:37:07;7.97;;;4.90;;
2680;SDS011;1350;42.134;24.708;2024-02-21T13:39:35;8.50;;;4.87;;
2680;SDS011;1350;42.134;24.708;2024-02-21T13:42:02;16.00;;;6.47;;
2680;SDS011;1350;42.134;24.708;2024-02-21T13:44:30;12.23;;;6.10;;
2680;SDS011;1350;42.134;24.708;2024-02-21T13:46:57;10.20;;;5.10;;
2680;SDS011;1350;42.134;24.708;2024-02-21T13:49:24;15.40;;;5.90;;
2680;SDS011;1350;42.134;24.708;2024-02-21T13:51:53;13.33;;;5.30;;
2680;SDS011;1350;42.134;24.708;2024-02-21T13:54:20;8.10;;;4.43;;
2680;SDS011;1350;42.134;24.708;2024-02-21T13:56:47;8.47;;;3.83;;
2680;SDS011;1350;42.134;24.708;2024-02-21T13:59:15;8.20;;;5.23;;
2680;SDS011;1350;42.134;24.708;2024-02-21T14:01:43;16.50;;;5.60;;
2680;SDS011;1350;42.134;24.708;2024-02-21T14:04:10;8.87;;;4.23;;
2680;SDS011;1350;42.134;24.708;2024-02-21T14:06:37;15.13;;;4.97;;
2680;SDS011;1350;42.134;24.708;2024-02-21T14:09:09;13.97;;;4.73;;
2680;SDS011;1350;42.134;24.708;2024-02-21T14:11:36;8.53;;;4.60;;
2680;SDS011;1350;42.134;24.708;2024-02-21T14:14:05;9.63;;;4.87;;
2680;SDS011;1350;42.134;24.708;2024-02-21T14:16:32;14.10;;;5.07;;
2680;SDS011;1350;42.134;24.708;2024-02-21T14:18:59;18.23;;;7.60;;
2680;SDS011;1350;42.134;24.708;2024-02-21T14:21:26;16.00;;;9.83;;
2680;SDS011;1350;42.134;24.708;2024-02-21T14:23:54;14.33;;;7.70;;
2680;SDS011;1350;42.134;24.708;2024-02-21T14:26:23;11.73;;;8.50;;
2680;SDS011;1350;42.134;24.708;2024-02-21T14:28:50;15.23;;;9.07;;
2680;SDS011;1350;42.134;24.708;2024-02-21T14:31:17;19.00;;;9.00;;
2680;SDS011;1350;42.134;24.708;2024-02-21T14:33:44;14.57;;;8.53;;
2680;SDS011;1350;42.134;24.708;2024-02-21T14:36:12;13.10;;;9.07;;
2680;SDS011;1350;42.134;24.708;2024-02-21T14:38:40;16.77;;;8.63;;
2680;SDS011;1350;42.134;24.708;2024-02-21T14:41:08;14.80;;;9.63;;
2680;SDS011;1350;42.134;24.708;2024-02-21T14:43:38;14.63;;;8.60;;
2680;SDS011;1350;42.134;24.708;2024-02-21T14:46:05;15.17;;;8.73;;
2680;SDS011;1350;42.134;24.708;2024-02-21T14:48:32;13.37;;;8.37;;
2680;SDS011;1350;42.134;24.708;2024-02-21T14:51:00;16.30;;;11.47;;
2680;SDS011;1350;42.134;24.708;2024-02-21T14:53:27;35.30;;;26.23;;
2680;SDS011;1350;42.134;24.708;2024-02-21T14:55:55;32.70;;;22.37;;
2680;SDS011;1350;42.134;24.708;2024-02-21T14:58:23;18.23;;;11.90;;
2680;SDS011;1350;42.134;24.708;2024-02-21T15:00:51;16.80;;;8.73;;
2680;SDS011;1350;42.134;24.708;2024-02-21T15:03:19;16.67;;;8.90;;
2680;SDS011;1350;42.134;24.708;2024-02-21T15:05:46;17.87;;;7.73;;